Hundvaag 1 weather for Jun 1996
Month no. 108
Obs.
Da.
Temp. Dew Point Precip. Wind
Speed
Wind gusts Cloud cover Press. Humidity Wind dir. Sunny OPT
01.06.1996 10,4   5,1     10       1  
02.06.1996 9,6   1,2     1       1  
03.06.1996 8,5   0,0     3       1  
04.06.1996 10,9   0,9     0          
05.06.1996 9,9   1,4     10          
06.06.1996 12,7   1,4     0       1  
07.06.1996 9,0   2,3     10       1  
08.06.1996 14,9   34,3     0       1  
09.06.1996 10,9   14,5     0       1  
10.06.1996 10,7   0,0     0          
11.06.1996 12,7   5,5     2          
12.06.1996 11,7   17,7     0          
13.06.1996 9,5   12,7     0       1  
14.06.1996 7,3   0,5     5          
15.06.1996 11,7   0,9     0       1  
16.06.1996 12,2   0,0     10       1  
17.06.1996 9,0   0,0     0          
18.06.1996 8,9   4,1     0       1  
19.06.1996 9,8   1,8     4       1  
20.06.1996 8,6   0,5     6       1  
21.06.1996 8,9   7,4     8          
22.06.1996 9,8   0,0     10       1  
23.06.1996 10,0   0,0     4       1  
24.06.1996 10,5   0,0     10       1  
25.06.1996 9,6   0,5     0       1  
26.06.1996 11,1   0,0     1          
27.06.1996 10,1   0,0     9       1  
28.06.1996 9,6   0,0     0          
29.06.1996 13,6   1,9     0          
30.06.1996 11,4   4,1     0          
                       
Avrg/Sum 10,5   118,7     3,4       18